sensor_id;sensor_type;location;lat;lon;timestamp;temperature;humidity
49052;DHT22;34866;48.670;18.260;2023-05-08T00:00:35;153.60;2252.80
49052;DHT22;34866;48.670;18.260;2023-05-08T00:03:01;128.90;2252.80
49052;DHT22;34866;48.670;18.260;2023-05-08T00:05:34;128.90;2252.80
49052;DHT22;34866;48.670;18.260;2023-05-08T00:07:59;128.80;2252.80
49052;DHT22;34866;48.670;18.260;2023-05-08T00:10:29;153.70;2252.80
49052;DHT22;34866;48.670;18.260;2023-05-08T00:12:56;153.70;2252.80
49052;DHT22;34866;48.670;18.260;2023-05-08T00:15:22;153.60;2252.80
49052;DHT22;34866;48.670;18.260;2023-05-08T00:17:48;128.90;2252.80
49052;DHT22;34866;48.670;18.260;2023-05-08T00:20:13;153.60;2252.80
49052;DHT22;34866;48.670;18.260;2023-05-08T00:22:39;153.80;2252.80
49052;DHT22;34866;48.670;18.260;2023-05-08T00:25:05;153.70;2252.80
49052;DHT22;34866;48.670;18.260;2023-05-08T00:27:31;153.80;2252.80
49052;DHT22;34866;48.670;18.260;2023-05-08T00:29:57;153.90;2252.80
49052;DHT22;34866;48.670;18.260;2023-05-08T00:32:25;154.00;2252.80
49052;DHT22;34866;48.670;18.260;2023-05-08T00:34:51;153.90;2252.80
49052;DHT22;34866;48.670;18.260;2023-05-08T00:37:17;153.80;2252.80
49052;DHT22;34866;48.670;18.260;2023-05-08T00:39:42;153.60;2252.80
49052;DHT22;34866;48.670;18.260;2023-05-08T00:42:08;128.80;2252.80
49052;DHT22;34866;48.670;18.260;2023-05-08T00:44:34;128.80;2252.80
49052;DHT22;34866;48.670;18.260;2023-05-08T00:46:59;128.90;2252.80
49052;DHT22;34866;48.670;18.260;2023-05-08T00:49:26;153.60;2252.80
49052;DHT22;34866;48.670;18.260;2023-05-08T00:51:53;153.60;2252.80
49052;DHT22;34866;48.670;18.260;2023-05-08T00:54:20;153.70;2252.80
49052;DHT22;34866;48.670;18.260;2023-05-08T00:56:51;153.60;2252.80
49052;DHT22;34866;48.670;18.260;2023-05-08T00:59:19;153.70;2252.80
49052;DHT22;34866;48.670;18.260;2023-05-08T01:01:47;128.90;2252.80
49052;DHT22;34866;48.670;18.260;2023-05-08T01:04:13;128.90;2252.80
49052;DHT22;34866;48.670;18.260;2023-05-08T01:06:40;128.80;2252.80
49052;DHT22;34866;48.670;18.260;2023-05-08T01:09:06;128.80;2252.80
49052;DHT22;34866;48.670;18.260;2023-05-08T01:20:48;128.90;2252.80
49052;DHT22;34866;48.670;18.260;2023-05-08T01:32:33;128.70;2252.80
49052;DHT22;34866;48.670;18.260;2023-05-08T01:35:21;128.70;2252.80
49052;DHT22;34866;48.670;18.260;2023-05-08T01:38:25;128.40;2252.80
49052;DHT22;34866;48.670;18.260;2023-05-08T01:41:09;128.30;2252.80
49052;DHT22;34866;48.670;18.260;2023-05-08T01:46:05;128.20;2252.80
49052;DHT22;34866;48.670;18.260;2023-05-08T01:48:52;128.10;2252.80
49052;DHT22;34866;48.670;18.260;2023-05-08T01:51:22;128.20;2252.80
49052;DHT22;34866;48.670;18.260;2023-05-08T01:53:59;128.10;2252.80
49052;DHT22;34866;48.670;18.260;2023-05-08T01:56:30;128.10;2252.80
49052;DHT22;34866;48.670;18.260;2023-05-08T01:58:58;128.10;2252.80
49052;DHT22;34866;48.670;18.260;2023-05-08T02:01:24;128.00;2252.80
49052;DHT22;34866;48.670;18.260;2023-05-08T02:03:52;128.00;2252.80
49052;DHT22;34866;48.670;18.260;2023-05-08T02:06:22;103.30;2227.20
49052;DHT22;34866;48.670;18.260;2023-05-08T02:08:50;103.30;2227.20
49052;DHT22;34866;48.670;18.260;2023-05-08T02:11:17;128.00;2252.80
49052;DHT22;34866;48.670;18.260;2023-05-08T02:13:45;128.00;2252.80
49052;DHT22;34866;48.670;18.260;2023-05-08T02:16:13;128.00;2252.80
49052;DHT22;34866;48.670;18.260;2023-05-08T02:18:42;128.20;2252.80
49052;DHT22;34866;48.670;18.260;2023-05-08T02:21:10;128.20;2252.80
49052;DHT22;34866;48.670;18.260;2023-05-08T02:23:37;128.30;2252.80
49052;DHT22;34866;48.670;18.260;2023-05-08T02:26:03;128.20;2252.80
49052;DHT22;34866;48.670;18.260;2023-05-08T02:28:30;128.30;2252.80
49052;DHT22;34866;48.670;18.260;2023-05-08T02:30:57;128.30;2252.80
49052;DHT22;34866;48.670;18.260;2023-05-08T02:33:26;128.30;2252.80
49052;DHT22;34866;48.670;18.260;2023-05-08T02:35:54;128.30;2252.80
49052;DHT22;34866;48.670;18.260;2023-05-08T02:38:22;128.40;2252.80
49052;DHT22;34866;48.670;18.260;2023-05-08T02:40:52;128.30;2252.80
49052;DHT22;34866;48.670;18.260;2023-05-08T02:43:27;128.30;2252.80
49052;DHT22;34866;48.670;18.260;2023-05-08T02:46:16;128.30;2252.80
49052;DHT22;34866;48.670;18.260;2023-05-08T02:49:06;128.30;2252.80
49052;DHT22;34866;48.670;18.260;2023-05-08T02:54:10;128.20;2252.80
49052;DHT22;34866;48.670;18.260;2023-05-08T02:57:04;128.20;2252.80
49052;DHT22;34866;48.670;18.260;2023-05-08T02:59:37;128.10;2252.80
49052;DHT22;34866;48.670;18.260;2023-05-08T03:02:14;128.10;2252.80
49052;DHT22;34866;48.670;18.260;2023-05-08T03:04:49;128.50;2252.80
49052;DHT22;34866;48.670;18.260;2023-05-08T03:07:16;128.40;2048.00
49052;DHT22;34866;48.670;18.260;2023-05-08T03:09:49;128.60;1945.60
49052;DHT22;34866;48.670;18.260;2023-05-08T03:12:22;128.60;2252.80
49052;DHT22;34866;48.670;18.260;2023-05-08T03:17:53;128.70;2252.80
49052;DHT22;34866;48.670;18.260;2023-05-08T03:20:21;128.80;1996.80
49052;DHT22;34866;48.670;18.260;2023-05-08T03:22:50;128.90;1971.20
49052;DHT22;34866;48.670;18.260;2023-05-08T03:25:19;128.90;2252.80
49052;DHT22;34866;48.670;18.260;2023-05-08T03:27:46;128.80;2252.80
49052;DHT22;34866;48.670;18.260;2023-05-08T03:30:13;128.90;2252.80
49052;DHT22;34866;48.670;18.260;2023-05-08T03:32:40;153.60;1868.80
49052;DHT22;34866;48.670;18.260;2023-05-08T03:35:07;128.90;2099.20
49052;DHT22;34866;48.670;18.260;2023-05-08T03:37:34;153.60;2099.20
49052;DHT22;34866;48.670;18.260;2023-05-08T03:40:00;153.60;2176.00
49052;DHT22;34866;48.670;18.260;2023-05-08T03:42:26;153.70;2252.80
49052;DHT22;34866;48.670;18.260;2023-05-08T03:44:53;153.80;2252.80
49052;DHT22;34866;48.670;18.260;2023-05-08T03:47:20;153.90;2124.80
49052;DHT22;34866;48.670;18.260;2023-05-08T03:49:47;153.90;2048.00
49052;DHT22;34866;48.670;18.260;2023-05-08T03:52:14;153.90;2252.80
49052;DHT22;34866;48.670;18.260;2023-05-08T03:54:39;153.90;2252.80
49052;DHT22;34866;48.670;18.260;2023-05-08T03:57:05;154.00;2252.80
49052;DHT22;34866;48.670;18.260;2023-05-08T03:59:42;154.10;2176.00
49052;DHT22;34866;48.670;18.260;2023-05-08T04:06:14;154.10;2252.80
49052;DHT22;34866;48.670;18.260;2023-05-08T04:08:40;154.30;2252.80
49052;DHT22;34866;48.670;18.260;2023-05-08T04:11:29;179.20;2252.80
49052;DHT22;34866;48.670;18.260;2023-05-08T04:14:08;179.20;2252.80
49052;DHT22;34866;48.670;18.260;2023-05-08T04:16:41;179.40;2252.80
49052;DHT22;34866;48.670;18.260;2023-05-08T04:19:13;179.40;2252.80
49052;DHT22;34866;48.670;18.260;2023-05-08T04:21:41;179.40;2252.80
49052;DHT22;34866;48.670;18.260;2023-05-08T04:24:09;179.40;2252.80
49052;DHT22;34866;48.670;18.260;2023-05-08T04:26:37;179.50;2252.80
49052;DHT22;34866;48.670;18.260;2023-05-08T04:29:04;179.60;2252.80
49052;DHT22;34866;48.670;18.260;2023-05-08T04:31:32;128.40;2252.80
49052;DHT22;34866;48.670;18.260;2023-05-08T04:34:01;179.80;1945.60
49052;DHT22;34866;48.670;18.260;2023-05-08T04:36:30;179.80;1868.80
49052;DHT22;34866;48.670;18.260;2023-05-08T04:38:56;179.90;1510.40
49052;DHT22;34866;48.670;18.260;2023-05-08T04:41:22;180.00;1433.60
49052;DHT22;34866;48.670;18.260;2023-05-08T04:43:48;180.10;1280.00
49052;DHT22;34866;48.670;18.260;2023-05-08T04:46:15;204.80;1075.20
49052;DHT22;34866;48.670;18.260;2023-05-08T04:48:40;180.10;947.20
49052;DHT22;34866;48.670;18.260;2023-05-08T04:51:07;180.10;947.20
49052;DHT22;34866;48.670;18.260;2023-05-08T04:53:33;180.10;870.40
49052;DHT22;34866;48.670;18.260;2023-05-08T04:56:00;180.10;844.80
49052;DHT22;34866;48.670;18.260;2023-05-08T04:58:27;180.10;870.40
49052;DHT22;34866;48.670;18.260;2023-05-08T05:00:53;180.10;793.60
49052;DHT22;34866;48.670;18.260;2023-05-08T05:03:19;205.10;768.00
49052;DHT22;34866;48.670;18.260;2023-05-08T05:05:45;205.20;128.00
49052;DHT22;34866;48.670;18.260;2023-05-08T05:08:10;205.20;179.20
49052;DHT22;34866;48.670;18.260;2023-05-08T05:10:37;205.30;6528.00
49052;DHT22;34866;48.670;18.260;2023-05-08T05:13:04;205.30;6528.00
49052;DHT22;34866;48.670;18.260;2023-05-08T05:15:31;205.10;358.40
49052;DHT22;34866;48.670;18.260;2023-05-08T05:17:57;205.30;6528.00
49052;DHT22;34866;48.670;18.260;2023-05-08T05:20:23;205.40;128.00
49052;DHT22;34866;48.670;18.260;2023-05-08T05:22:49;205.60;6502.40
49052;DHT22;34866;48.670;18.260;2023-05-08T05:25:14;205.60;6502.40
49052;DHT22;34866;48.670;18.260;2023-05-08T05:27:40;205.70;6502.40
49052;DHT22;34866;48.670;18.260;2023-05-08T05:30:06;230.80;6502.40
49052;DHT22;34866;48.670;18.260;2023-05-08T05:32:32;282.00;6528.00
49052;DHT22;34866;48.670;18.260;2023-05-08T05:34:58;307.50;128.00
49052;DHT22;34866;48.670;18.260;2023-05-08T05:37:24;256.40;6502.40
49052;DHT22;34866;48.670;18.260;2023-05-08T05:39:50;231.20;6502.40
49052;DHT22;34866;48.670;18.260;2023-05-08T05:42:16;256.00;6502.40
49052;DHT22;34866;48.670;18.260;2023-05-08T05:44:41;231.10;6502.40
49052;DHT22;34866;48.670;18.260;2023-05-08T05:47:07;230.90;6502.40
49052;DHT22;34866;48.670;18.260;2023-05-08T05:49:36;231.00;6502.40
49052;DHT22;34866;48.670;18.260;2023-05-08T05:52:07;231.10;6502.40
49052;DHT22;34866;48.670;18.260;2023-05-08T05:54:33;256.00;6502.40
49052;DHT22;34866;48.670;18.260;2023-05-08T05:56:58;231.30;6502.40
49052;DHT22;34866;48.670;18.260;2023-05-08T05:59:24;256.20;6502.40
49052;DHT22;34866;48.670;18.260;2023-05-08T06:01:50;256.00;6502.40
49052;DHT22;34866;48.670;18.260;2023-05-08T06:04:16;256.00;6502.40
49052;DHT22;34866;48.670;18.260;2023-05-08T06:06:41;256.20;6502.40
49052;DHT22;34866;48.670;18.260;2023-05-08T06:09:07;256.00;6502.40
49052;DHT22;34866;48.670;18.260;2023-05-08T06:11:33;231.10;6502.40
49052;DHT22;34866;48.670;18.260;2023-05-08T06:13:58;231.10;6502.40
49052;DHT22;34866;48.670;18.260;2023-05-08T06:16:25;230.90;6502.40
49052;DHT22;34866;48.670;18.260;2023-05-08T06:18:51;231.20;6502.40
49052;DHT22;34866;48.670;18.260;2023-05-08T06:21:17;256.00;6502.40
49052;DHT22;34866;48.670;18.260;2023-05-08T06:23:43;256.10;6502.40
49052;DHT22;34866;48.670;18.260;2023-05-08T06:26:09;256.10;6502.40
49052;DHT22;34866;48.670;18.260;2023-05-08T06:28:35;256.40;6502.40
49052;DHT22;34866;48.670;18.260;2023-05-08T06:31:00;281.80;6528.00
49052;DHT22;34866;48.670;18.260;2023-05-08T06:33:26;256.50;6502.40
49052;DHT22;34866;48.670;18.260;2023-05-08T06:35:52;256.40;6502.40
49052;DHT22;34866;48.670;18.260;2023-05-08T06:38:17;256.30;6502.40
49052;DHT22;34866;48.670;18.260;2023-05-08T06:40:46;256.70;6502.40
49052;DHT22;34866;48.670;18.260;2023-05-08T06:43:14;256.90;6502.40
49052;DHT22;34866;48.670;18.260;2023-05-08T06:45:42;256.90;6502.40
49052;DHT22;34866;48.670;18.260;2023-05-08T06:48:07;281.70;6528.00
49052;DHT22;34866;48.670;18.260;2023-05-08T06:50:36;282.10;6528.00
49052;DHT22;34866;48.670;18.260;2023-05-08T06:53:02;282.20;6528.00
49052;DHT22;34866;48.670;18.260;2023-05-08T06:55:27;282.00;6528.00
49052;DHT22;34866;48.670;18.260;2023-05-08T06:57:54;282.20;6528.00
49052;DHT22;34866;48.670;18.260;2023-05-08T07:00:20;307.20;128.00
49052;DHT22;34866;48.670;18.260;2023-05-08T07:02:46;307.40;128.00
49052;DHT22;34866;48.670;18.260;2023-05-08T07:05:12;307.20;281.60
49052;DHT22;34866;48.670;18.260;2023-05-08T07:07:38;307.20;128.00
49052;DHT22;34866;48.670;18.260;2023-05-08T07:10:04;282.40;128.00
49052;DHT22;34866;48.670;18.260;2023-05-08T07:12:30;307.50;128.00
49052;DHT22;34866;48.670;18.260;2023-05-08T07:14:57;282.50;6528.00
49052;DHT22;34866;48.670;18.260;2023-05-08T07:17:22;307.40;128.00
49052;DHT22;34866;48.670;18.260;2023-05-08T07:19:51;282.50;128.00
49052;DHT22;34866;48.670;18.260;2023-05-08T07:22:17;307.40;128.00
49052;DHT22;34866;48.670;18.260;2023-05-08T07:24:43;307.30;128.00
49052;DHT22;34866;48.670;18.260;2023-05-08T07:27:09;282.40;128.00
49052;DHT22;34866;48.670;18.260;2023-05-08T07:29:34;282.50;6528.00
49052;DHT22;34866;48.670;18.260;2023-05-08T07:32:00;307.50;128.00
49052;DHT22;34866;48.670;18.260;2023-05-08T07:34:27;307.90;128.00
49052;DHT22;34866;48.670;18.260;2023-05-08T07:36:53;307.90;128.00
49052;DHT22;34866;48.670;18.260;2023-05-08T07:39:19;307.90;128.00
49052;DHT22;34866;48.670;18.260;2023-05-08T07:41:45;307.70;128.00
49052;DHT22;34866;48.670;18.260;2023-05-08T07:44:12;307.80;128.00
49052;DHT22;34866;48.670;18.260;2023-05-08T07:46:41;308.00;128.00
49052;DHT22;34866;48.670;18.260;2023-05-08T07:49:07;308.10;128.00
49052;DHT22;34866;48.670;18.260;2023-05-08T07:51:33;308.00;128.00
49052;DHT22;34866;48.670;18.260;2023-05-08T07:54:00;332.80;128.00
49052;DHT22;34866;48.670;18.260;2023-05-08T07:56:26;332.90;128.00
49052;DHT22;34866;48.670;18.260;2023-05-08T07:58:52;333.10;128.00
49052;DHT22;34866;48.670;18.260;2023-05-08T08:01:19;333.20;128.00
49052;DHT22;34866;48.670;18.260;2023-05-08T08:03:45;333.30;128.00
49052;DHT22;34866;48.670;18.260;2023-05-08T08:06:11;333.20;128.00
49052;DHT22;34866;48.670;18.260;2023-05-08T08:08:37;333.10;128.00
49052;DHT22;34866;48.670;18.260;2023-05-08T08:11:05;333.30;128.00
49052;DHT22;34866;48.670;18.260;2023-05-08T08:13:31;333.50;128.00
49052;DHT22;34866;48.670;18.260;2023-05-08T08:15:57;333.30;128.00
49052;DHT22;34866;48.670;18.260;2023-05-08T08:18:23;333.30;128.00
49052;DHT22;34866;48.670;18.260;2023-05-08T08:20:49;333.00;128.00
49052;DHT22;34866;48.670;18.260;2023-05-08T08:23:15;333.30;128.00
49052;DHT22;34866;48.670;18.260;2023-05-08T08:25:40;333.70;128.00
49052;DHT22;34866;48.670;18.260;2023-05-08T08:28:06;333.70;128.00
49052;DHT22;34866;48.670;18.260;2023-05-08T08:30:32;358.50;128.00
49052;DHT22;34866;48.670;18.260;2023-05-08T08:32:58;358.40;128.00
49052;DHT22;34866;48.670;18.260;2023-05-08T08:35:28;358.50;128.00
49052;DHT22;34866;48.670;18.260;2023-05-08T08:37:55;358.40;128.00
49052;DHT22;34866;48.670;18.260;2023-05-08T08:40:22;333.60;128.00
49052;DHT22;34866;48.670;18.260;2023-05-08T08:42:51;333.50;128.00
49052;DHT22;34866;48.670;18.260;2023-05-08T08:45:16;358.60;128.00
49052;DHT22;34866;48.670;18.260;2023-05-08T08:47:44;358.80;128.00
49052;DHT22;34866;48.670;18.260;2023-05-08T08:50:12;358.50;128.00
49052;DHT22;34866;48.670;18.260;2023-05-08T08:55:21;358.80;128.00
49052;DHT22;34866;48.670;18.260;2023-05-08T08:58:12;359.10;128.00
49052;DHT22;34866;48.670;18.260;2023-05-08T09:00:39;359.00;128.00
49052;DHT22;34866;48.670;18.260;2023-05-08T09:03:12;359.10;128.00
49052;DHT22;34866;48.670;18.260;2023-05-08T09:05:42;359.00;128.00
49052;DHT22;34866;48.670;18.260;2023-05-08T09:08:09;359.20;128.00
49052;DHT22;34866;48.670;18.260;2023-05-08T09:10:35;358.90;128.00
49052;DHT22;34866;48.670;18.260;2023-05-08T09:13:02;359.00;128.00
49052;DHT22;34866;48.670;18.260;2023-05-08T09:15:31;359.30;128.00
49052;DHT22;34866;48.670;18.260;2023-05-08T09:17:57;384.00;128.00
49052;DHT22;34866;48.670;18.260;2023-05-08T09:20:43;384.20;128.00
49052;DHT22;34866;48.670;18.260;2023-05-08T09:23:34;384.80;128.00
49052;DHT22;34866;48.670;18.260;2023-05-08T09:26:00;384.70;128.00
49052;DHT22;34866;48.670;18.260;2023-05-08T09:28:28;409.60;128.00
49052;DHT22;34866;48.670;18.260;2023-05-08T09:30:55;409.80;128.00
49052;DHT22;34866;48.670;18.260;2023-05-08T09:33:26;409.60;128.00
49052;DHT22;34866;48.670;18.260;2023-05-08T09:35:53;384.70;128.00
49052;DHT22;34866;48.670;18.260;2023-05-08T09:38:38;384.80;128.00
49052;DHT22;34866;48.670;18.260;2023-05-08T09:41:22;384.70;128.00
49052;DHT22;34866;48.670;18.260;2023-05-08T09:44:17;409.80;128.00
49052;DHT22;34866;48.670;18.260;2023-05-08T09:46:44;409.80;128.00
49052;DHT22;34866;48.670;18.260;2023-05-08T09:49:16;409.60;128.00
49052;DHT22;34866;48.670;18.260;2023-05-08T09:51:51;409.90;128.00
49052;DHT22;34866;48.670;18.260;2023-05-08T09:54:20;410.00;128.00
49052;DHT22;34866;48.670;18.260;2023-05-08T09:56:46;409.80;128.00
49052;DHT22;34866;48.670;18.260;2023-05-08T09:59:27;409.90;128.00
49052;DHT22;34866;48.670;18.260;2023-05-08T10:01:57;409.60;128.00
49052;DHT22;34866;48.670;18.260;2023-05-08T10:04:34;410.50;128.00
49052;DHT22;34866;48.670;18.260;2023-05-08T10:07:02;435.40;128.00
49052;DHT22;34866;48.670;18.260;2023-05-08T10:09:29;410.40;128.00
49052;DHT22;34866;48.670;18.260;2023-05-08T10:11:55;410.50;128.00
49052;DHT22;34866;48.670;18.260;2023-05-08T10:14:22;410.50;128.00
49052;DHT22;34866;48.670;18.260;2023-05-08T10:16:50;410.30;128.00
49052;DHT22;34866;48.670;18.260;2023-05-08T10:19:22;410.50;128.00
49052;DHT22;34866;48.670;18.260;2023-05-08T10:21:50;435.50;128.00
49052;DHT22;34866;48.670;18.260;2023-05-08T10:24:26;435.70;128.00
49052;DHT22;34866;48.670;18.260;2023-05-08T10:27:10;435.70;128.00
49052;DHT22;34866;48.670;18.260;2023-05-08T10:29:51;435.50;128.00
49052;DHT22;34866;48.670;18.260;2023-05-08T10:32:23;435.50;128.00
49052;DHT22;34866;48.670;18.260;2023-05-08T10:34:58;435.40;128.00
49052;DHT22;34866;48.670;18.260;2023-05-08T10:37:24;435.20;128.00
49052;DHT22;34866;48.670;18.260;2023-05-08T10:39:53;436.00;128.00
49052;DHT22;34866;48.670;18.260;2023-05-08T10:42:20;435.90;128.00
49052;DHT22;34866;48.670;18.260;2023-05-08T10:44:46;435.70;128.00
49052;DHT22;34866;48.670;18.260;2023-05-08T10:47:15;460.90;128.00
49052;DHT22;34866;48.670;18.260;2023-05-08T10:49:46;435.90;128.00
49052;DHT22;34866;48.670;18.260;2023-05-08T10:52:34;435.40;128.00
49052;DHT22;34866;48.670;18.260;2023-05-08T10:55:28;460.90;128.00
49052;DHT22;34866;48.670;18.260;2023-05-08T10:58:14;460.90;128.00
49052;DHT22;34866;48.670;18.260;2023-05-08T11:03:19;461.00;128.00
49052;DHT22;34866;48.670;18.260;2023-05-08T11:05:46;460.90;128.00
49052;DHT22;34866;48.670;18.260;2023-05-08T11:08:26;436.00;128.00
49052;DHT22;34866;48.670;18.260;2023-05-08T11:13:47;461.20;128.00
49052;DHT22;34866;48.670;18.260;2023-05-08T11:16:15;461.20;128.00
49052;DHT22;34866;48.670;18.260;2023-05-08T11:19:20;461.10;128.00
49052;DHT22;34866;48.670;18.260;2023-05-08T11:25:09;461.60;640.00
49052;DHT22;34866;48.670;18.260;2023-05-08T11:30:20;461.30;640.00
49052;DHT22;34866;48.670;18.260;2023-05-08T11:36:10;461.00;128.00
49052;DHT22;34866;48.670;18.260;2023-05-08T11:38:37;461.40;128.00
49052;DHT22;34866;48.670;18.260;2023-05-08T11:41:10;461.70;128.00
49052;DHT22;34866;48.670;18.260;2023-05-08T11:44:04;461.20;128.00
49052;DHT22;34866;48.670;18.260;2023-05-08T11:46:53;461.20;128.00
49052;DHT22;34866;48.670;18.260;2023-05-08T11:49:23;486.40;128.00
49052;DHT22;34866;48.670;18.260;2023-05-08T11:51:51;461.70;128.00
49052;DHT22;34866;48.670;18.260;2023-05-08T11:54:21;461.70;128.00
49052;DHT22;34866;48.670;18.260;2023-05-08T11:56:48;461.30;307.20
49052;DHT22;34866;48.670;18.260;2023-05-08T11:59:14;461.50;128.00
49052;DHT22;34866;48.670;18.260;2023-05-08T12:01:41;461.50;128.00
49052;DHT22;34866;48.670;18.260;2023-05-08T12:04:08;461.60;128.00
49052;DHT22;34866;48.670;18.260;2023-05-08T12:06:36;486.50;128.00
49052;DHT22;34866;48.670;18.260;2023-05-08T12:09:22;486.40;128.00
49052;DHT22;34866;48.670;18.260;2023-05-08T12:12:08;486.80;128.00
49052;DHT22;34866;48.670;18.260;2023-05-08T12:14:34;461.50;128.00
49052;DHT22;34866;48.670;18.260;2023-05-08T12:17:03;486.60;128.00
49052;DHT22;34866;48.670;18.260;2023-05-08T12:19:31;486.60;128.00
49052;DHT22;34866;48.670;18.260;2023-05-08T12:21:59;486.60;640.00
49052;DHT22;34866;48.670;18.260;2023-05-08T12:24:25;486.90;128.00
49052;DHT22;34866;48.670;18.260;2023-05-08T12:26:53;487.20;128.00
49052;DHT22;34866;48.670;18.260;2023-05-08T12:29:20;486.60;307.20
49052;DHT22;34866;48.670;18.260;2023-05-08T12:31:47;486.90;614.40
49052;DHT22;34866;48.670;18.260;2023-05-08T12:34:13;487.10;128.00
49052;DHT22;34866;48.670;18.260;2023-05-08T12:36:39;486.80;128.00
49052;DHT22;34866;48.670;18.260;2023-05-08T12:39:12;486.80;486.40
49052;DHT22;34866;48.670;18.260;2023-05-08T12:41:51;486.90;128.00
49052;DHT22;34866;48.670;18.260;2023-05-08T12:44:23;486.90;640.00
49052;DHT22;34866;48.670;18.260;2023-05-08T12:46:55;486.80;384.00
49052;DHT22;34866;48.670;18.260;2023-05-08T12:49:33;486.90;486.40
49052;DHT22;34866;48.670;18.260;2023-05-08T12:52:19;487.00;588.80
49052;DHT22;34866;48.670;18.260;2023-05-08T12:54:49;486.80;409.60
49052;DHT22;34866;48.670;18.260;2023-05-08T12:57:23;512.10;512.00
49052;DHT22;34866;48.670;18.260;2023-05-08T12:59:49;487.30;409.60
49052;DHT22;34866;48.670;18.260;2023-05-08T13:02:20;487.10;307.20
49052;DHT22;34866;48.670;18.260;2023-05-08T13:04:52;487.30;128.00
49052;DHT22;34866;48.670;18.260;2023-05-08T13:07:20;486.70;128.00
49052;DHT22;34866;48.670;18.260;2023-05-08T13:10:01;486.90;128.00
49052;DHT22;34866;48.670;18.260;2023-05-08T13:12:30;512.00;640.00
49052;DHT22;34866;48.670;18.260;2023-05-08T13:14:58;487.00;563.20
49052;DHT22;34866;48.670;18.260;2023-05-08T13:17:25;487.20;614.40
49052;DHT22;34866;48.670;18.260;2023-05-08T13:19:51;487.10;128.00
49052;DHT22;34866;48.670;18.260;2023-05-08T13:22:16;486.70;128.00
49052;DHT22;34866;48.670;18.260;2023-05-08T13:24:49;487.10;409.60
49052;DHT22;34866;48.670;18.260;2023-05-08T13:27:16;487.20;563.20
49052;DHT22;34866;48.670;18.260;2023-05-08T13:29:43;487.20;409.60
49052;DHT22;34866;48.670;18.260;2023-05-08T13:32:08;487.10;128.00
49052;DHT22;34866;48.670;18.260;2023-05-08T13:34:34;512.00;563.20
49052;DHT22;34866;48.670;18.260;2023-05-08T13:37:00;512.00;128.00
49052;DHT22;34866;48.670;18.260;2023-05-08T13:39:26;512.50;128.00
49052;DHT22;34866;48.670;18.260;2023-05-08T13:42:10;487.30;588.80
49052;DHT22;34866;48.670;18.260;2023-05-08T13:44:36;512.20;614.40
49052;DHT22;34866;48.670;18.260;2023-05-08T13:47:02;512.00;588.80
49052;DHT22;34866;48.670;18.260;2023-05-08T13:49:28;512.20;588.80
49052;DHT22;34866;48.670;18.260;2023-05-08T13:51:59;512.10;640.00
49052;DHT22;34866;48.670;18.260;2023-05-08T13:54:48;512.00;128.00
49052;DHT22;34866;48.670;18.260;2023-05-08T13:57:14;512.40;230.40
49052;DHT22;34866;48.670;18.260;2023-05-08T13:59:48;537.90;614.40
49052;DHT22;34866;48.670;18.260;2023-05-08T14:02:14;537.80;128.00
49052;DHT22;34866;48.670;18.260;2023-05-08T14:05:03;512.90;256.00
49052;DHT22;34866;48.670;18.260;2023-05-08T14:07:29;512.30;128.00
49052;DHT22;34866;48.670;18.260;2023-05-08T14:09:55;512.40;128.00
49052;DHT22;34866;48.670;18.260;2023-05-08T14:12:21;512.10;691.20
49052;DHT22;34866;48.670;18.260;2023-05-08T14:14:48;512.70;179.20
49052;DHT22;34866;48.670;18.260;2023-05-08T14:17:14;512.30;563.20
49052;DHT22;34866;48.670;18.260;2023-05-08T14:19:40;512.80;128.00
49052;DHT22;34866;48.670;18.260;2023-05-08T14:22:07;512.30;588.80
49052;DHT22;34866;48.670;18.260;2023-05-08T14:24:33;512.30;614.40
49052;DHT22;34866;48.670;18.260;2023-05-08T14:27:19;512.70;128.00
49052;DHT22;34866;48.670;18.260;2023-05-08T14:29:47;512.40;128.00
49052;DHT22;34866;48.670;18.260;2023-05-08T14:32:13;512.70;640.00
49052;DHT22;34866;48.670;18.260;2023-05-08T14:34:40;512.80;486.40
49052;DHT22;34866;48.670;18.260;2023-05-08T14:37:08;537.80;128.00
49052;DHT22;34866;48.670;18.260;2023-05-08T14:39:36;512.70;588.80
49052;DHT22;34866;48.670;18.260;2023-05-08T14:42:05;512.70;332.80
49052;DHT22;34866;48.670;18.260;2023-05-08T14:44:31;512.90;640.00
49052;DHT22;34866;48.670;18.260;2023-05-08T14:46:57;512.70;486.40
49052;DHT22;34866;48.670;18.260;2023-05-08T14:49:26;512.60;435.20
49052;DHT22;34866;48.670;18.260;2023-05-08T14:51:52;538.30;640.00
49052;DHT22;34866;48.670;18.260;2023-05-08T14:54:18;512.30;128.00
49052;DHT22;34866;48.670;18.260;2023-05-08T14:56:44;512.10;614.40
49052;DHT22;34866;48.670;18.260;2023-05-08T14:59:10;512.90;128.00
49052;DHT22;34866;48.670;18.260;2023-05-08T15:01:37;512.50;614.40
49052;DHT22;34866;48.670;18.260;2023-05-08T15:04:08;512.60;128.00
49052;DHT22;34866;48.670;18.260;2023-05-08T15:06:33;487.30;486.40
49052;DHT22;34866;48.670;18.260;2023-05-08T15:09:00;512.00;588.80
49052;DHT22;34866;48.670;18.260;2023-05-08T15:11:32;512.00;435.20
49052;DHT22;34866;48.670;18.260;2023-05-08T15:13:59;512.10;588.80
49052;DHT22;34866;48.670;18.260;2023-05-08T15:16:26;512.30;128.00
49052;DHT22;34866;48.670;18.260;2023-05-08T15:18:52;512.20;153.60
49052;DHT22;34866;48.670;18.260;2023-05-08T15:21:17;487.10;128.00
49052;DHT22;34866;48.670;18.260;2023-05-08T15:23:45;487.10;640.00
49052;DHT22;34866;48.670;18.260;2023-05-08T15:26:11;487.20;384.00
49052;DHT22;34866;48.670;18.260;2023-05-08T15:28:37;512.50;512.00
49052;DHT22;34866;48.670;18.260;2023-05-08T15:31:05;487.20;256.00
49052;DHT22;34866;48.670;18.260;2023-05-08T15:33:31;487.20;358.40
49052;DHT22;34866;48.670;18.260;2023-05-08T15:35:57;512.00;128.00
49052;DHT22;34866;48.670;18.260;2023-05-08T15:38:23;512.00;128.00
49052;DHT22;34866;48.670;18.260;2023-05-08T15:40:49;512.10;512.00
49052;DHT22;34866;48.670;18.260;2023-05-08T15:43:15;487.10;358.40